sensor_id;sensor_type;location;lat;lon;timestamp;P1;durP1;ratioP1;P2;durP2;ratioP2
20689;SDS011;10504;48.762;8.996;2022-07-11T00:02:16;0.60;;;0.57;;
20689;SDS011;10504;48.762;8.996;2022-07-11T00:04:42;0.60;;;0.40;;
20689;SDS011;10504;48.762;8.996;2022-07-11T00:07:08;0.60;;;0.60;;
20689;SDS011;10504;48.762;8.996;2022-07-11T00:09:34;0.63;;;0.40;;
20689;SDS011;10504;48.762;8.996;2022-07-11T00:12:00;0.67;;;0.40;;
20689;SDS011;10504;48.762;8.996;2022-07-11T00:14:26;0.30;;;0.30;;
20689;SDS011;10504;48.762;8.996;2022-07-11T00:16:52;0.97;;;0.40;;
20689;SDS011;10504;48.762;8.996;2022-07-11T00:19:19;0.83;;;0.50;;
20689;SDS011;10504;48.762;8.996;2022-07-11T00:21:45;0.53;;;0.50;;
20689;SDS011;10504;48.762;8.996;2022-07-11T00:24:12;1.00;;;0.67;;
20689;SDS011;10504;48.762;8.996;2022-07-11T00:26:38;1.40;;;0.70;;
20689;SDS011;10504;48.762;8.996;2022-07-11T00:29:04;0.60;;;0.60;;
20689;SDS011;10504;48.762;8.996;2022-07-11T00:31:31;0.70;;;0.50;;
20689;SDS011;10504;48.762;8.996;2022-07-11T00:33:56;0.53;;;0.50;;
20689;SDS011;10504;48.762;8.996;2022-07-11T00:36:22;0.77;;;0.60;;
20689;SDS011;10504;48.762;8.996;2022-07-11T00:38:48;1.00;;;0.60;;
20689;SDS011;10504;48.762;8.996;2022-07-11T00:41:14;0.50;;;0.50;;
20689;SDS011;10504;48.762;8.996;2022-07-11T00:43:40;1.23;;;0.40;;
20689;SDS011;10504;48.762;8.996;2022-07-11T00:46:07;0.43;;;0.30;;
20689;SDS011;10504;48.762;8.996;2022-07-11T00:48:34;1.00;;;0.60;;
20689;SDS011;10504;48.762;8.996;2022-07-11T00:51:03;1.03;;;0.60;;
20689;SDS011;10504;48.762;8.996;2022-07-11T00:53:30;0.50;;;0.50;;
20689;SDS011;10504;48.762;8.996;2022-07-11T00:55:57;1.07;;;0.40;;
20689;SDS011;10504;48.762;8.996;2022-07-11T00:58:24;0.63;;;0.60;;
20689;SDS011;10504;48.762;8.996;2022-07-11T01:00:50;1.07;;;0.60;;
20689;SDS011;10504;48.762;8.996;2022-07-11T01:03:16;0.53;;;0.40;;
20689;SDS011;10504;48.762;8.996;2022-07-11T01:05:42;0.73;;;0.60;;
20689;SDS011;10504;48.762;8.996;2022-07-11T01:08:08;0.77;;;0.63;;
20689;SDS011;10504;48.762;8.996;2022-07-11T01:10:34;1.17;;;0.67;;
20689;SDS011;10504;48.762;8.996;2022-07-11T01:12:59;1.00;;;0.70;;
20689;SDS011;10504;48.762;8.996;2022-07-11T01:15:26;0.50;;;0.40;;
20689;SDS011;10504;48.762;8.996;2022-07-11T01:17:52;1.33;;;0.40;;
20689;SDS011;10504;48.762;8.996;2022-07-11T01:20:21;0.67;;;0.50;;
20689;SDS011;10504;48.762;8.996;2022-07-11T01:22:54;0.73;;;0.60;;
20689;SDS011;10504;48.762;8.996;2022-07-11T01:25:22;1.43;;;0.70;;
20689;SDS011;10504;48.762;8.996;2022-07-11T01:30:29;1.13;;;0.70;;
20689;SDS011;10504;48.762;8.996;2022-07-11T01:32:55;1.77;;;0.80;;
20689;SDS011;10504;48.762;8.996;2022-07-11T01:35:21;1.80;;;0.60;;
20689;SDS011;10504;48.762;8.996;2022-07-11T01:37:48;0.60;;;0.60;;
20689;SDS011;10504;48.762;8.996;2022-07-11T01:40:14;0.80;;;0.70;;
20689;SDS011;10504;48.762;8.996;2022-07-11T01:42:40;0.70;;;0.70;;
20689;SDS011;10504;48.762;8.996;2022-07-11T01:45:06;0.83;;;0.50;;
20689;SDS011;10504;48.762;8.996;2022-07-11T01:47:33;1.30;;;0.60;;
20689;SDS011;10504;48.762;8.996;2022-07-11T01:49:58;1.90;;;0.60;;
20689;SDS011;10504;48.762;8.996;2022-07-11T01:52:24;1.60;;;0.80;;
20689;SDS011;10504;48.762;8.996;2022-07-11T01:54:51;0.93;;;0.70;;
20689;SDS011;10504;48.762;8.996;2022-07-11T01:57:16;2.43;;;0.70;;
20689;SDS011;10504;48.762;8.996;2022-07-11T01:59:42;1.17;;;0.70;;
20689;SDS011;10504;48.762;8.996;2022-07-11T02:02:08;2.33;;;0.67;;
20689;SDS011;10504;48.762;8.996;2022-07-11T02:04:33;1.30;;;0.60;;
20689;SDS011;10504;48.762;8.996;2022-07-11T02:06:59;4.20;;;1.00;;
20689;SDS011;10504;48.762;8.996;2022-07-11T02:09:25;1.07;;;0.57;;
20689;SDS011;10504;48.762;8.996;2022-07-11T02:11:51;1.40;;;0.70;;
20689;SDS011;10504;48.762;8.996;2022-07-11T02:14:17;3.40;;;0.80;;
20689;SDS011;10504;48.762;8.996;2022-07-11T02:16:42;2.57;;;1.13;;
20689;SDS011;10504;48.762;8.996;2022-07-11T02:19:08;2.77;;;0.90;;
20689;SDS011;10504;48.762;8.996;2022-07-11T02:21:35;1.53;;;0.83;;
20689;SDS011;10504;48.762;8.996;2022-07-11T02:24:01;1.63;;;0.70;;
20689;SDS011;10504;48.762;8.996;2022-07-11T02:26:28;1.23;;;0.60;;
20689;SDS011;10504;48.762;8.996;2022-07-11T02:28:53;1.03;;;0.57;;
20689;SDS011;10504;48.762;8.996;2022-07-11T02:31:19;1.07;;;0.77;;
20689;SDS011;10504;48.762;8.996;2022-07-11T02:33:45;0.77;;;0.67;;
20689;SDS011;10504;48.762;8.996;2022-07-11T02:36:11;1.70;;;0.90;;
20689;SDS011;10504;48.762;8.996;2022-07-11T02:38:36;1.63;;;1.00;;
20689;SDS011;10504;48.762;8.996;2022-07-11T02:41:02;0.77;;;0.70;;
20689;SDS011;10504;48.762;8.996;2022-07-11T02:43:28;1.10;;;0.50;;
20689;SDS011;10504;48.762;8.996;2022-07-11T02:45:54;1.37;;;0.70;;
20689;SDS011;10504;48.762;8.996;2022-07-11T02:48:20;2.77;;;1.10;;
20689;SDS011;10504;48.762;8.996;2022-07-11T02:50:46;2.33;;;0.90;;
20689;SDS011;10504;48.762;8.996;2022-07-11T02:53:12;2.13;;;0.70;;
20689;SDS011;10504;48.762;8.996;2022-07-11T02:55:37;1.03;;;0.63;;
20689;SDS011;10504;48.762;8.996;2022-07-11T02:58:03;1.33;;;0.80;;
20689;SDS011;10504;48.762;8.996;2022-07-11T03:00:30;0.70;;;0.50;;
20689;SDS011;10504;48.762;8.996;2022-07-11T03:02:56;2.67;;;1.10;;
20689;SDS011;10504;48.762;8.996;2022-07-11T03:05:22;1.83;;;0.83;;
20689;SDS011;10504;48.762;8.996;2022-07-11T03:07:48;1.27;;;0.70;;
20689;SDS011;10504;48.762;8.996;2022-07-11T03:10:14;1.40;;;0.70;;
20689;SDS011;10504;48.762;8.996;2022-07-11T03:12:40;4.17;;;1.10;;
20689;SDS011;10504;48.762;8.996;2022-07-11T03:15:06;0.50;;;0.50;;
20689;SDS011;10504;48.762;8.996;2022-07-11T03:17:33;1.63;;;1.00;;
20689;SDS011;10504;48.762;8.996;2022-07-11T03:20:00;1.07;;;0.77;;
20689;SDS011;10504;48.762;8.996;2022-07-11T03:22:27;1.73;;;0.87;;
20689;SDS011;10504;48.762;8.996;2022-07-11T03:24:52;1.30;;;0.70;;
20689;SDS011;10504;48.762;8.996;2022-07-11T03:27:18;2.33;;;0.80;;
20689;SDS011;10504;48.762;8.996;2022-07-11T03:29:44;1.50;;;0.73;;
20689;SDS011;10504;48.762;8.996;2022-07-11T03:32:09;1.23;;;0.83;;
20689;SDS011;10504;48.762;8.996;2022-07-11T03:34:35;1.03;;;0.77;;
20689;SDS011;10504;48.762;8.996;2022-07-11T03:37:02;1.40;;;0.70;;
20689;SDS011;10504;48.762;8.996;2022-07-11T03:39:28;0.80;;;0.70;;
20689;SDS011;10504;48.762;8.996;2022-07-11T03:41:53;2.10;;;0.77;;
20689;SDS011;10504;48.762;8.996;2022-07-11T03:44:19;3.23;;;1.17;;
20689;SDS011;10504;48.762;8.996;2022-07-11T03:46:45;0.80;;;0.57;;
20689;SDS011;10504;48.762;8.996;2022-07-11T03:49:11;3.10;;;0.93;;
20689;SDS011;10504;48.762;8.996;2022-07-11T03:51:36;1.53;;;0.87;;
20689;SDS011;10504;48.762;8.996;2022-07-11T03:54:02;2.00;;;0.90;;
20689;SDS011;10504;48.762;8.996;2022-07-11T03:56:28;1.63;;;0.90;;
20689;SDS011;10504;48.762;8.996;2022-07-11T03:58:54;1.60;;;0.87;;
20689;SDS011;10504;48.762;8.996;2022-07-11T04:01:19;1.00;;;0.67;;
20689;SDS011;10504;48.762;8.996;2022-07-11T04:03:46;1.00;;;0.90;;
20689;SDS011;10504;48.762;8.996;2022-07-11T04:06:12;1.90;;;0.90;;
20689;SDS011;10504;48.762;8.996;2022-07-11T04:08:38;2.43;;;1.00;;
20689;SDS011;10504;48.762;8.996;2022-07-11T04:11:04;1.53;;;0.80;;
20689;SDS011;10504;48.762;8.996;2022-07-11T04:13:30;0.73;;;0.73;;
20689;SDS011;10504;48.762;8.996;2022-07-11T04:15:56;2.07;;;0.90;;
20689;SDS011;10504;48.762;8.996;2022-07-11T04:18:22;2.93;;;0.87;;
20689;SDS011;10504;48.762;8.996;2022-07-11T04:20:48;0.80;;;0.63;;
20689;SDS011;10504;48.762;8.996;2022-07-11T04:23:14;2.63;;;1.10;;
20689;SDS011;10504;48.762;8.996;2022-07-11T04:25:43;2.37;;;0.83;;
20689;SDS011;10504;48.762;8.996;2022-07-11T04:28:09;0.90;;;0.77;;
20689;SDS011;10504;48.762;8.996;2022-07-11T04:30:34;1.20;;;0.60;;
20689;SDS011;10504;48.762;8.996;2022-07-11T04:33:00;1.00;;;0.70;;
20689;SDS011;10504;48.762;8.996;2022-07-11T04:35:26;1.17;;;0.83;;
20689;SDS011;10504;48.762;8.996;2022-07-11T04:37:53;1.07;;;0.80;;
20689;SDS011;10504;48.762;8.996;2022-07-11T04:40:19;2.53;;;1.10;;
20689;SDS011;10504;48.762;8.996;2022-07-11T04:42:48;1.03;;;0.70;;
20689;SDS011;10504;48.762;8.996;2022-07-11T04:45:14;2.13;;;0.83;;
20689;SDS011;10504;48.762;8.996;2022-07-11T04:47:40;1.60;;;0.80;;
20689;SDS011;10504;48.762;8.996;2022-07-11T04:50:06;1.83;;;0.70;;
20689;SDS011;10504;48.762;8.996;2022-07-11T04:52:33;1.37;;;0.60;;
20689;SDS011;10504;48.762;8.996;2022-07-11T04:54:58;1.70;;;0.90;;
20689;SDS011;10504;48.762;8.996;2022-07-11T04:57:24;1.53;;;1.03;;
20689;SDS011;10504;48.762;8.996;2022-07-11T04:59:51;1.90;;;0.93;;
20689;SDS011;10504;48.762;8.996;2022-07-11T05:02:17;1.30;;;0.90;;
20689;SDS011;10504;48.762;8.996;2022-07-11T05:04:43;3.10;;;1.03;;
20689;SDS011;10504;48.762;8.996;2022-07-11T05:07:09;1.63;;;1.10;;
20689;SDS011;10504;48.762;8.996;2022-07-11T05:09:34;0.83;;;0.80;;
20689;SDS011;10504;48.762;8.996;2022-07-11T05:12:00;2.20;;;1.13;;
20689;SDS011;10504;48.762;8.996;2022-07-11T05:14:26;1.70;;;1.00;;
20689;SDS011;10504;48.762;8.996;2022-07-11T05:16:51;3.17;;;1.50;;
20689;SDS011;10504;48.762;8.996;2022-07-11T05:19:17;4.13;;;1.10;;
20689;SDS011;10504;48.762;8.996;2022-07-11T05:21:43;1.53;;;0.93;;
20689;SDS011;10504;48.762;8.996;2022-07-11T05:24:08;4.07;;;1.30;;
20689;SDS011;10504;48.762;8.996;2022-07-11T05:26:34;3.30;;;1.33;;
20689;SDS011;10504;48.762;8.996;2022-07-11T05:29:01;2.63;;;1.40;;
20689;SDS011;10504;48.762;8.996;2022-07-11T05:31:26;2.03;;;1.20;;
20689;SDS011;10504;48.762;8.996;2022-07-11T05:33:52;2.47;;;1.33;;
20689;SDS011;10504;48.762;8.996;2022-07-11T05:36:18;2.17;;;1.30;;
20689;SDS011;10504;48.762;8.996;2022-07-11T05:38:44;4.27;;;1.00;;
20689;SDS011;10504;48.762;8.996;2022-07-11T05:41:10;2.63;;;1.13;;
20689;SDS011;10504;48.762;8.996;2022-07-11T05:43:36;2.13;;;1.10;;
20689;SDS011;10504;48.762;8.996;2022-07-11T05:46:04;1.40;;;1.00;;
20689;SDS011;10504;48.762;8.996;2022-07-11T05:48:30;2.27;;;1.30;;
20689;SDS011;10504;48.762;8.996;2022-07-11T05:50:56;1.80;;;1.33;;
20689;SDS011;10504;48.762;8.996;2022-07-11T05:53:22;5.37;;;1.80;;
20689;SDS011;10504;48.762;8.996;2022-07-11T05:55:47;3.77;;;1.63;;
20689;SDS011;10504;48.762;8.996;2022-07-11T05:58:13;3.83;;;1.63;;
20689;SDS011;10504;48.762;8.996;2022-07-11T06:00:39;2.27;;;0.90;;
20689;SDS011;10504;48.762;8.996;2022-07-11T06:03:04;3.37;;;1.60;;
20689;SDS011;10504;48.762;8.996;2022-07-11T06:05:30;5.73;;;1.77;;
20689;SDS011;10504;48.762;8.996;2022-07-11T06:07:56;2.33;;;1.40;;
20689;SDS011;10504;48.762;8.996;2022-07-11T06:10:40;2.83;;;1.37;;
20689;SDS011;10504;48.762;8.996;2022-07-11T06:13:05;2.10;;;1.30;;
20689;SDS011;10504;48.762;8.996;2022-07-11T06:15:31;3.03;;;1.40;;
20689;SDS011;10504;48.762;8.996;2022-07-11T06:17:57;1.40;;;0.97;;
20689;SDS011;10504;48.762;8.996;2022-07-11T06:20:22;2.73;;;1.33;;
20689;SDS011;10504;48.762;8.996;2022-07-11T06:22:48;3.53;;;1.50;;
20689;SDS011;10504;48.762;8.996;2022-07-11T06:25:14;2.10;;;1.27;;
20689;SDS011;10504;48.762;8.996;2022-07-11T06:27:40;3.40;;;1.40;;
20689;SDS011;10504;48.762;8.996;2022-07-11T06:30:06;3.53;;;1.40;;
20689;SDS011;10504;48.762;8.996;2022-07-11T06:32:32;1.70;;;0.93;;
20689;SDS011;10504;48.762;8.996;2022-07-11T06:34:57;3.13;;;1.40;;
20689;SDS011;10504;48.762;8.996;2022-07-11T06:37:23;1.50;;;1.10;;
20689;SDS011;10504;48.762;8.996;2022-07-11T06:39:49;1.20;;;0.80;;
20689;SDS011;10504;48.762;8.996;2022-07-11T06:42:14;1.73;;;1.00;;
20689;SDS011;10504;48.762;8.996;2022-07-11T06:44:40;1.27;;;0.90;;
20689;SDS011;10504;48.762;8.996;2022-07-11T06:47:06;2.13;;;1.07;;
20689;SDS011;10504;48.762;8.996;2022-07-11T06:49:31;2.60;;;1.33;;
20689;SDS011;10504;48.762;8.996;2022-07-11T06:51:57;1.77;;;0.70;;
20689;SDS011;10504;48.762;8.996;2022-07-11T06:54:23;1.40;;;0.70;;
20689;SDS011;10504;48.762;8.996;2022-07-11T06:56:49;2.03;;;1.10;;
20689;SDS011;10504;48.762;8.996;2022-07-11T06:59:14;3.53;;;1.40;;
20689;SDS011;10504;48.762;8.996;2022-07-11T07:01:40;1.83;;;0.90;;
20689;SDS011;10504;48.762;8.996;2022-07-11T07:04:06;1.37;;;1.00;;
20689;SDS011;10504;48.762;8.996;2022-07-11T07:06:31;2.37;;;1.30;;
20689;SDS011;10504;48.762;8.996;2022-07-11T07:08:57;1.27;;;0.80;;
20689;SDS011;10504;48.762;8.996;2022-07-11T07:11:23;1.27;;;0.63;;
20689;SDS011;10504;48.762;8.996;2022-07-11T07:13:48;2.00;;;1.00;;
20689;SDS011;10504;48.762;8.996;2022-07-11T07:16:15;0.90;;;0.80;;
20689;SDS011;10504;48.762;8.996;2022-07-11T07:18:41;1.20;;;0.70;;
20689;SDS011;10504;48.762;8.996;2022-07-11T07:21:10;2.37;;;0.53;;
20689;SDS011;10504;48.762;8.996;2022-07-11T07:23:36;1.30;;;0.80;;
20689;SDS011;10504;48.762;8.996;2022-07-11T07:26:02;0.63;;;0.60;;
20689;SDS011;10504;48.762;8.996;2022-07-11T07:28:28;1.33;;;0.70;;
20689;SDS011;10504;48.762;8.996;2022-07-11T07:30:53;0.70;;;0.60;;
20689;SDS011;10504;48.762;8.996;2022-07-11T07:33:19;3.73;;;0.80;;
20689;SDS011;10504;48.762;8.996;2022-07-11T07:35:45;1.37;;;0.80;;
20689;SDS011;10504;48.762;8.996;2022-07-11T07:38:10;0.50;;;0.50;;
20689;SDS011;10504;48.762;8.996;2022-07-11T07:40:37;1.20;;;0.80;;
20689;SDS011;10504;48.762;8.996;2022-07-11T07:43:03;2.33;;;0.77;;
20689;SDS011;10504;48.762;8.996;2022-07-11T07:45:29;2.63;;;0.87;;
20689;SDS011;10504;48.762;8.996;2022-07-11T07:47:54;0.73;;;0.70;;
20689;SDS011;10504;48.762;8.996;2022-07-11T07:50:20;3.30;;;0.90;;
20689;SDS011;10504;48.762;8.996;2022-07-11T07:52:47;1.60;;;0.70;;
20689;SDS011;10504;48.762;8.996;2022-07-11T07:55:13;0.50;;;0.50;;
20689;SDS011;10504;48.762;8.996;2022-07-11T07:57:38;1.33;;;0.67;;
20689;SDS011;10504;48.762;8.996;2022-07-11T08:00:04;0.80;;;0.60;;
20689;SDS011;10504;48.762;8.996;2022-07-11T08:02:49;0.83;;;0.50;;
20689;SDS011;10504;48.762;8.996;2022-07-11T08:05:16;3.60;;;0.80;;
20689;SDS011;10504;48.762;8.996;2022-07-11T08:07:43;0.77;;;0.53;;
20689;SDS011;10504;48.762;8.996;2022-07-11T08:10:08;0.50;;;0.40;;
20689;SDS011;10504;48.762;8.996;2022-07-11T08:12:34;1.80;;;0.50;;
20689;SDS011;10504;48.762;8.996;2022-07-11T08:15:00;0.43;;;0.43;;
20689;SDS011;10504;48.762;8.996;2022-07-11T08:17:26;1.13;;;0.50;;
20689;SDS011;10504;48.762;8.996;2022-07-11T08:19:52;1.20;;;0.80;;
20689;SDS011;10504;48.762;8.996;2022-07-11T08:22:17;0.63;;;0.40;;
20689;SDS011;10504;48.762;8.996;2022-07-11T08:24:43;0.40;;;0.40;;
20689;SDS011;10504;48.762;8.996;2022-07-11T08:27:09;1.03;;;0.63;;
20689;SDS011;10504;48.762;8.996;2022-07-11T08:29:34;0.67;;;0.67;;
20689;SDS011;10504;48.762;8.996;2022-07-11T08:32:00;1.33;;;0.60;;
20689;SDS011;10504;48.762;8.996;2022-07-11T08:34:26;0.97;;;0.53;;
20689;SDS011;10504;48.762;8.996;2022-07-11T08:36:52;1.37;;;0.47;;
20689;SDS011;10504;48.762;8.996;2022-07-11T08:39:18;1.20;;;0.60;;
20689;SDS011;10504;48.762;8.996;2022-07-11T08:41:44;0.87;;;0.53;;
20689;SDS011;10504;48.762;8.996;2022-07-11T08:44:13;1.37;;;0.50;;
20689;SDS011;10504;48.762;8.996;2022-07-11T08:46:40;0.93;;;0.50;;
20689;SDS011;10504;48.762;8.996;2022-07-11T08:49:06;1.17;;;0.47;;
20689;SDS011;10504;48.762;8.996;2022-07-11T08:51:32;0.50;;;0.40;;
20689;SDS011;10504;48.762;8.996;2022-07-11T08:54:02;0.40;;;0.40;;
20689;SDS011;10504;48.762;8.996;2022-07-11T08:56:28;1.40;;;0.73;;
20689;SDS011;10504;48.762;8.996;2022-07-11T08:58:58;0.50;;;0.50;;
20689;SDS011;10504;48.762;8.996;2022-07-11T09:01:28;0.93;;;0.50;;
20689;SDS011;10504;48.762;8.996;2022-07-11T09:03:55;0.40;;;0.40;;
20689;SDS011;10504;48.762;8.996;2022-07-11T09:06:21;0.77;;;0.40;;
20689;SDS011;10504;48.762;8.996;2022-07-11T09:08:47;0.83;;;0.70;;
20689;SDS011;10504;48.762;8.996;2022-07-11T09:11:13;0.40;;;0.40;;
20689;SDS011;10504;48.762;8.996;2022-07-11T09:13:38;0.63;;;0.30;;
20689;SDS011;10504;48.762;8.996;2022-07-11T09:16:05;0.30;;;0.30;;
20689;SDS011;10504;48.762;8.996;2022-07-11T09:18:33;0.83;;;0.63;;
20689;SDS011;10504;48.762;8.996;2022-07-11T09:23:53;0.40;;;0.40;;
20689;SDS011;10504;48.762;8.996;2022-07-11T09:26:40;6.83;;;0.93;;
20689;SDS011;10504;48.762;8.996;2022-07-11T09:29:11;0.40;;;0.30;;
20689;SDS011;10504;48.762;8.996;2022-07-11T09:31:39;0.47;;;0.40;;
20689;SDS011;10504;48.762;8.996;2022-07-11T09:34:10;0.50;;;0.50;;
20689;SDS011;10504;48.762;8.996;2022-07-11T09:36:40;1.07;;;0.50;;
20689;SDS011;10504;48.762;8.996;2022-07-11T09:39:07;0.70;;;0.40;;
20689;SDS011;10504;48.762;8.996;2022-07-11T09:41:35;0.37;;;0.30;;
20689;SDS011;10504;48.762;8.996;2022-07-11T09:44:08;0.97;;;0.43;;
20689;SDS011;10504;48.762;8.996;2022-07-11T09:46:42;0.80;;;0.47;;
20689;SDS011;10504;48.762;8.996;2022-07-11T09:49:11;0.50;;;0.50;;
20689;SDS011;10504;48.762;8.996;2022-07-11T09:51:37;0.30;;;0.23;;
20689;SDS011;10504;48.762;8.996;2022-07-11T09:54:04;0.40;;;0.40;;
20689;SDS011;10504;48.762;8.996;2022-07-11T09:56:38;0.20;;;0.20;;
20689;SDS011;10504;48.762;8.996;2022-07-11T09:59:05;1.60;;;0.60;;
20689;SDS011;10504;48.762;8.996;2022-07-11T10:01:31;0.60;;;0.60;;
20689;SDS011;10504;48.762;8.996;2022-07-11T10:03:58;0.77;;;0.47;;
20689;SDS011;10504;48.762;8.996;2022-07-11T10:06:24;0.43;;;0.33;;
20689;SDS011;10504;48.762;8.996;2022-07-11T10:08:51;0.20;;;0.20;;
20689;SDS011;10504;48.762;8.996;2022-07-11T10:11:18;1.00;;;0.40;;
20689;SDS011;10504;48.762;8.996;2022-07-11T10:13:45;0.20;;;0.20;;
20689;SDS011;10504;48.762;8.996;2022-07-11T10:16:13;0.30;;;0.30;;
20689;SDS011;10504;48.762;8.996;2022-07-11T10:19:18;0.77;;;0.30;;
20689;SDS011;10504;48.762;8.996;2022-07-11T10:24:51;0.50;;;0.50;;
20689;SDS011;10504;48.762;8.996;2022-07-11T10:29:57;0.70;;;0.40;;
20689;SDS011;10504;48.762;8.996;2022-07-11T10:32:23;0.73;;;0.50;;
20689;SDS011;10504;48.762;8.996;2022-07-11T10:35:05;0.20;;;0.20;;
20689;SDS011;10504;48.762;8.996;2022-07-11T10:37:44;0.40;;;0.20;;
20689;SDS011;10504;48.762;8.996;2022-07-11T10:40:12;0.33;;;0.33;;
20689;SDS011;10504;48.762;8.996;2022-07-11T10:42:39;0.20;;;0.20;;
20689;SDS011;10504;48.762;8.996;2022-07-11T10:45:09;0.40;;;0.40;;
20689;SDS011;10504;48.762;8.996;2022-07-11T10:47:42;0.20;;;0.20;;
20689;SDS011;10504;48.762;8.996;2022-07-11T10:52:59;0.37;;;0.37;;
20689;SDS011;10504;48.762;8.996;2022-07-11T10:55:34;0.83;;;0.47;;
20689;SDS011;10504;48.762;8.996;2022-07-11T11:00:48;0.30;;;0.30;;
20689;SDS011;10504;48.762;8.996;2022-07-11T11:03:15;0.73;;;0.50;;
20689;SDS011;10504;48.762;8.996;2022-07-11T11:16:40;0.70;;;0.40;;
20689;SDS011;10504;48.762;8.996;2022-07-11T11:19:06;0.37;;;0.37;;
20689;SDS011;10504;48.762;8.996;2022-07-11T11:21:32;0.30;;;0.27;;
20689;SDS011;10504;48.762;8.996;2022-07-11T11:26:40;1.53;;;0.40;;
20689;SDS011;10504;48.762;8.996;2022-07-11T11:29:18;0.50;;;0.50;;
20689;SDS011;10504;48.762;8.996;2022-07-11T11:31:49;0.83;;;0.50;;
20689;SDS011;10504;48.762;8.996;2022-07-11T11:34:16;0.27;;;0.27;;
20689;SDS011;10504;48.762;8.996;2022-07-11T11:36:42;1.90;;;0.50;;
20689;SDS011;10504;48.762;8.996;2022-07-11T11:39:09;1.53;;;0.60;;
20689;SDS011;10504;48.762;8.996;2022-07-11T11:41:34;0.30;;;0.30;;
20689;SDS011;10504;48.762;8.996;2022-07-11T11:44:01;0.30;;;0.30;;
20689;SDS011;10504;48.762;8.996;2022-07-11T11:46:31;0.37;;;0.33;;
20689;SDS011;10504;48.762;8.996;2022-07-11T11:49:00;0.40;;;0.30;;
20689;SDS011;10504;48.762;8.996;2022-07-11T11:51:28;0.33;;;0.33;;
20689;SDS011;10504;48.762;8.996;2022-07-11T11:54:00;0.77;;;0.60;;
20689;SDS011;10504;48.762;8.996;2022-07-11T11:56:34;0.20;;;0.20;;
20689;SDS011;10504;48.762;8.996;2022-07-11T11:59:10;0.50;;;0.50;;
20689;SDS011;10504;48.762;8.996;2022-07-11T12:01:47;0.40;;;0.40;;
20689;SDS011;10504;48.762;8.996;2022-07-11T12:04:16;1.33;;;0.60;;
20689;SDS011;10504;48.762;8.996;2022-07-11T12:06:43;1.90;;;0.73;;
20689;SDS011;10504;48.762;8.996;2022-07-11T12:09:15;0.40;;;0.40;;
20689;SDS011;10504;48.762;8.996;2022-07-11T12:11:41;0.40;;;0.40;;
20689;SDS011;10504;48.762;8.996;2022-07-11T12:14:12;0.83;;;0.57;;
20689;SDS011;10504;48.762;8.996;2022-07-11T12:16:40;0.33;;;0.33;;
20689;SDS011;10504;48.762;8.996;2022-07-11T12:19:08;0.93;;;0.53;;
20689;SDS011;10504;48.762;8.996;2022-07-11T12:21:51;0.53;;;0.40;;
20689;SDS011;10504;48.762;8.996;2022-07-11T12:24:19;0.80;;;0.60;;
20689;SDS011;10504;48.762;8.996;2022-07-11T12:26:46;0.60;;;0.40;;
20689;SDS011;10504;48.762;8.996;2022-07-11T12:29:20;0.50;;;0.43;;
20689;SDS011;10504;48.762;8.996;2022-07-11T12:34:25;0.53;;;0.50;;
20689;SDS011;10504;48.762;8.996;2022-07-11T12:37:01;1.30;;;0.57;;
20689;SDS011;10504;48.762;8.996;2022-07-11T12:39:34;0.80;;;0.50;;
20689;SDS011;10504;48.762;8.996;2022-07-11T12:42:23;0.97;;;0.50;;
20689;SDS011;10504;48.762;8.996;2022-07-11T12:44:56;0.77;;;0.50;;
20689;SDS011;10504;48.762;8.996;2022-07-11T12:47:35;1.90;;;0.63;;
20689;SDS011;10504;48.762;8.996;2022-07-11T12:50:17;0.53;;;0.53;;
20689;SDS011;10504;48.762;8.996;2022-07-11T12:52:51;0.70;;;0.70;;
20689;SDS011;10504;48.762;8.996;2022-07-11T12:55:24;0.40;;;0.40;;
20689;SDS011;10504;48.762;8.996;2022-07-11T13:00:28;0.40;;;0.40;;
20689;SDS011;10504;48.762;8.996;2022-07-11T13:02:56;0.47;;;0.47;;
20689;SDS011;10504;48.762;8.996;2022-07-11T13:05:21;0.57;;;0.43;;
20689;SDS011;10504;48.762;8.996;2022-07-11T13:07:47;0.50;;;0.50;;
20689;SDS011;10504;48.762;8.996;2022-07-11T13:10:31;1.70;;;0.60;;
20689;SDS011;10504;48.762;8.996;2022-07-11T13:13:16;0.30;;;0.30;;
20689;SDS011;10504;48.762;8.996;2022-07-11T13:15:42;1.53;;;1.00;;
20689;SDS011;10504;48.762;8.996;2022-07-11T13:18:10;0.53;;;0.40;;
20689;SDS011;10504;48.762;8.996;2022-07-11T13:20:36;0.40;;;0.40;;
20689;SDS011;10504;48.762;8.996;2022-07-11T13:23:02;0.40;;;0.40;;
20689;SDS011;10504;48.762;8.996;2022-07-11T13:25:28;0.67;;;0.60;;
20689;SDS011;10504;48.762;8.996;2022-07-11T13:27:54;0.37;;;0.37;;
20689;SDS011;10504;48.762;8.996;2022-07-11T13:30:21;1.30;;;0.50;;
20689;SDS011;10504;48.762;8.996;2022-07-11T13:32:52;2.13;;;0.43;;
20689;SDS011;10504;48.762;8.996;2022-07-11T13:35:18;0.73;;;0.50;;
20689;SDS011;10504;48.762;8.996;2022-07-11T13:37:45;1.43;;;0.73;;
20689;SDS011;10504;48.762;8.996;2022-07-11T13:40:14;0.40;;;0.40;;
20689;SDS011;10504;48.762;8.996;2022-07-11T13:42:43;0.93;;;0.67;;
20689;SDS011;10504;48.762;8.996;2022-07-11T13:45:14;0.40;;;0.40;;
20689;SDS011;10504;48.762;8.996;2022-07-11T13:47:41;0.73;;;0.40;;
20689;SDS011;10504;48.762;8.996;2022-07-11T13:50:07;0.53;;;0.50;;
20689;SDS011;10504;48.762;8.996;2022-07-11T13:52:34;0.30;;;0.30;;
20689;SDS011;10504;48.762;8.996;2022-07-11T13:55:00;0.97;;;0.57;;
20689;SDS011;10504;48.762;8.996;2022-07-11T13:57:26;0.50;;;0.50;;
20689;SDS011;10504;48.762;8.996;2022-07-11T13:59:53;0.60;;;0.60;;
20689;SDS011;10504;48.762;8.996;2022-07-11T14:02:18;0.43;;;0.40;;
20689;SDS011;10504;48.762;8.996;2022-07-11T14:04:44;0.57;;;0.50;;
20689;SDS011;10504;48.762;8.996;2022-07-11T14:07:10;0.63;;;0.53;;
20689;SDS011;10504;48.762;8.996;2022-07-11T14:09:37;1.80;;;0.57;;
20689;SDS011;10504;48.762;8.996;2022-07-11T14:12:04;0.63;;;0.53;;
20689;SDS011;10504;48.762;8.996;2022-07-11T14:14:30;0.67;;;0.50;;
20689;SDS011;10504;48.762;8.996;2022-07-11T14:16:57;1.63;;;0.53;;
20689;SDS011;10504;48.762;8.996;2022-07-11T14:19:23;0.40;;;0.40;;
20689;SDS011;10504;48.762;8.996;2022-07-11T14:21:49;0.67;;;0.67;;
20689;SDS011;10504;48.762;8.996;2022-07-11T14:24:15;0.83;;;0.43;;
20689;SDS011;10504;48.762;8.996;2022-07-11T14:26:41;0.47;;;0.47;;
20689;SDS011;10504;48.762;8.996;2022-07-11T14:29:07;0.77;;;0.60;;
20689;SDS011;10504;48.762;8.996;2022-07-11T14:31:33;4.93;;;0.77;;
20689;SDS011;10504;48.762;8.996;2022-07-11T14:33:59;0.33;;;0.33;;
20689;SDS011;10504;48.762;8.996;2022-07-11T14:36:25;1.37;;;0.50;;
20689;SDS011;10504;48.762;8.996;2022-07-11T14:38:51;4.93;;;1.57;;
20689;SDS011;10504;48.762;8.996;2022-07-11T14:41:17;1.17;;;0.70;;
20689;SDS011;10504;48.762;8.996;2022-07-11T14:43:45;0.97;;;0.73;;
20689;SDS011;10504;48.762;8.996;2022-07-11T14:46:11;0.73;;;0.67;;
20689;SDS011;10504;48.762;8.996;2022-07-11T14:48:38;0.30;;;0.30;;
20689;SDS011;10504;48.762;8.996;2022-07-11T14:51:04;0.57;;;0.57;;
20689;SDS011;10504;48.762;8.996;2022-07-11T14:53:30;1.07;;;0.63;;
20689;SDS011;10504;48.762;8.996;2022-07-11T14:55:56;1.37;;;0.60;;
20689;SDS011;10504;48.762;8.996;2022-07-11T14:58:22;0.83;;;0.70;;
20689;SDS011;10504;48.762;8.996;2022-07-11T15:00:48;1.33;;;0.70;;
20689;SDS011;10504;48.762;8.996;2022-07-11T15:03:14;0.47;;;0.47;;
20689;SDS011;10504;48.762;8.996;2022-07-11T15:05:58;2.67;;;1.23;;
20689;SDS011;10504;48.762;8.996;2022-07-11T15:08:24;0.87;;;0.70;;
20689;SDS011;10504;48.762;8.996;2022-07-11T15:11:09;1.43;;;0.70;;
20689;SDS011;10504;48.762;8.996;2022-07-11T15:13:53;1.67;;;0.70;;
20689;SDS011;10504;48.762;8.996;2022-07-11T15:16:19;0.70;;;0.60;;
20689;SDS011;10504;48.762;8.996;2022-07-11T15:18:46;1.20;;;0.77;;
20689;SDS011;10504;48.762;8.996;2022-07-11T15:21:12;0.63;;;0.63;;
20689;SDS011;10504;48.762;8.996;2022-07-11T15:23:38;1.30;;;0.63;;
20689;SDS011;10504;48.762;8.996;2022-07-11T15:26:04;1.10;;;0.47;;